createdAt,value
2017-12-01T00:00:34.862Z,73.10
2017-12-01T00:03:01.777Z,73.90
2017-12-01T00:05:27.833Z,73.90
2017-12-01T00:07:53.888Z,74.10
2017-12-01T00:10:19.943Z,73.70
2017-12-01T00:12:45.997Z,72.50
2017-12-01T00:15:12.806Z,71.10
2017-12-01T00:17:38.832Z,71.00
2017-12-01T00:20:04.856Z,71.30
2017-12-01T00:22:30.914Z,72.30
2017-12-01T00:24:57.698Z,71.60
2017-12-01T00:27:23.734Z,71.60
2017-12-01T00:29:49.786Z,72.50
2017-12-01T00:32:16.580Z,72.60
2017-12-01T00:34:42.625Z,72.50
2017-12-01T00:37:08.681Z,71.70
2017-12-01T00:39:35.479Z,74.10
2017-12-01T00:42:01.636Z,74.10
2017-12-01T00:44:27.697Z,73.10
2017-12-01T00:46:53.755Z,72.90
2017-12-01T00:49:19.814Z,73.40
2017-12-01T00:51:45.977Z,72.40
2017-12-01T00:54:12.046Z,72.50
2017-12-01T00:56:38.117Z,71.60
2017-12-01T00:59:04.181Z,71.80
2017-12-01T01:01:30.234Z,71.60
2017-12-01T01:03:57.026Z,72.00
2017-12-01T01:06:23.086Z,72.00
2017-12-01T01:08:49.942Z,72.40
2017-12-01T01:11:16.004Z,72.30
2017-12-01T01:13:42.057Z,72.50
2017-12-01T01:16:08.091Z,72.60
2017-12-01T01:18:34.915Z,75.30
2017-12-01T01:21:00.968Z,75.10
2017-12-01T01:23:27.761Z,74.60
2017-12-01T01:25:53.808Z,74.60
2017-12-01T01:28:19.960Z,73.70
2017-12-01T01:30:46.744Z,73.40
2017-12-01T01:33:12.793Z,73.40
2017-12-01T01:35:38.873Z,73.90
2017-12-01T01:38:04.976Z,75.20
2017-12-01T01:40:31.053Z,78.70
2017-12-01T01:42:57.103Z,80.20
2017-12-01T01:45:23.921Z,78.50
2017-12-01T01:47:49.994Z,78.50
2017-12-01T01:50:16.039Z,79.20
2017-12-01T01:52:42.102Z,78.30
2017-12-01T01:55:08.167Z,78.30
2017-12-01T01:57:34.230Z,77.20
2017-12-01T02:00:00.283Z,76.60
2017-12-01T02:02:27.116Z,75.50
2017-12-01T02:04:53.935Z,73.50
2017-12-01T02:07:19.981Z,73.40
2017-12-01T02:09:46.783Z,76.00
2017-12-01T02:12:12.868Z,75.90
2017-12-01T02:14:38.918Z,75.20
2017-12-01T02:17:04.942Z,74.70
2017-12-01T02:19:30.979Z,74.40
2017-12-01T02:21:57.203Z,76.10
2017-12-01T02:24:23.429Z,74.80
2017-12-01T02:26:49.680Z,73.20
2017-12-01T02:29:15.967Z,75.70
2017-12-01T02:31:42.194Z,76.10
2017-12-01T02:34:08.423Z,75.50
2017-12-01T02:36:34.668Z,75.30
2017-12-01T02:39:00.938Z,76.20
2017-12-01T02:41:27.149Z,76.10
2017-12-01T02:43:54.268Z,77.40
2017-12-01T02:46:20.591Z,77.20
2017-12-01T02:48:47.577Z,74.60
2017-12-01T02:51:13.802Z,74.00
2017-12-01T02:53:40.795Z,78.10
2017-12-01T02:56:07.047Z,78.10
2017-12-01T02:58:33.318Z,76.90
2017-12-01T03:01:00.306Z,78.60
2017-12-01T03:03:27.242Z,81.10
2017-12-01T03:05:54.277Z,83.20
2017-12-01T03:08:21.241Z,82.90
2017-12-01T03:10:47.454Z,82.80
2017-12-01T03:13:13.754Z,82.60
2017-12-01T03:15:40.762Z,78.50
2017-12-01T03:18:07.087Z,77.90
2017-12-01T03:20:33.352Z,78.90
2017-12-01T03:22:59.585Z,77.80
2017-12-01T03:25:26.615Z,79.40
2017-12-01T03:27:52.870Z,79.30
2017-12-01T03:30:19.136Z,77.60
2017-12-01T03:32:45.497Z,77.10
2017-12-01T03:35:11.755Z,76.00
2017-12-01T03:37:38.745Z,75.40
2017-12-01T03:40:04.979Z,75.30
2017-12-01T03:42:31.221Z,76.10
2017-12-01T03:44:57.474Z,75.40
2017-12-01T03:47:23.714Z,74.90
2017-12-01T03:49:49.973Z,75.10
2017-12-01T03:52:16.202Z,74.80
2017-12-01T03:54:42.475Z,74.50
2017-12-01T03:57:08.744Z,75.40
2017-12-01T03:59:35.010Z,77.20
2017-12-01T04:02:01.279Z,75.40
2017-12-01T04:04:27.540Z,77.20
2017-12-01T04:06:53.822Z,75.30
2017-12-01T04:09:20.869Z,75.40
2017-12-01T04:11:47.854Z,75.00
2017-12-01T04:14:14.105Z,75.00
2017-12-01T04:16:40.330Z,74.70
2017-12-01T04:19:07.297Z,75.30
2017-12-01T04:21:34.279Z,75.80
2017-12-01T04:24:00.512Z,75.70
2017-12-01T04:26:26.745Z,77.90
2017-12-01T04:28:53.005Z,80.50
2017-12-01T04:31:19.274Z,82.40
2017-12-01T04:33:46.249Z,80.00
2017-12-01T04:36:12.497Z,79.90
2017-12-01T04:38:38.732Z,79.30
2017-12-01T04:41:04.978Z,76.80
2017-12-01T04:43:31.965Z,78.00
2017-12-01T04:45:58.234Z,78.00
2017-12-01T04:48:24.481Z,79.70
2017-12-01T04:50:51.581Z,77.30
2017-12-01T04:53:17.841Z,77.20
2017-12-01T04:55:44.850Z,76.00
2017-12-01T04:58:11.119Z,76.00
2017-12-01T05:00:37.414Z,75.00
2017-12-01T05:03:03.649Z,74.00
2017-12-01T05:05:29.901Z,76.10
2017-12-01T05:07:56.138Z,76.70
2017-12-01T05:10:22.395Z,77.60
2017-12-01T05:12:48.674Z,77.10
2017-12-01T05:15:14.971Z,76.90
2017-12-01T05:17:41.197Z,77.30
2017-12-01T05:20:07.430Z,78.00
2017-12-01T05:22:33.724Z,76.70
2017-12-01T05:24:59.986Z,76.40
2017-12-01T05:27:26.197Z,77.90
2017-12-01T05:29:52.436Z,77.30
2017-12-01T05:32:19.379Z,78.20
2017-12-01T05:34:45.637Z,77.80
2017-12-01T05:37:11.837Z,78.10
2017-12-01T05:39:38.059Z,77.10
2017-12-01T05:42:04.286Z,77.00
2017-12-01T05:44:30.565Z,75.50
2017-12-01T05:46:56.800Z,78.40
2017-12-01T05:49:23.054Z,80.00
2017-12-01T05:51:49.325Z,78.30
2017-12-01T05:54:15.828Z,79.20
2017-12-01T05:56:42.072Z,79.80
2017-12-01T05:59:08.335Z,80.40
2017-12-01T06:01:35.335Z,83.00
2017-12-01T06:04:01.569Z,83.00
2017-12-01T06:06:27.813Z,81.50
2017-12-01T06:08:54.107Z,84.00
2017-12-01T06:11:20.360Z,84.30
2017-12-01T06:13:46.611Z,84.20
2017-12-01T06:16:12.852Z,85.00
2017-12-01T06:18:39.841Z,86.10
2017-12-01T06:21:06.075Z,85.90
2017-12-01T06:23:32.312Z,87.20
2017-12-01T06:25:58.557Z,87.00
2017-12-01T06:28:24.987Z,86.10
2017-12-01T06:30:55.513Z,86.40
2017-12-01T06:33:21.746Z,86.40
2017-12-01T06:35:47.955Z,87.30
2017-12-01T06:38:14.229Z,87.50
2017-12-01T06:40:41.425Z,87.10
2017-12-01T06:43:07.666Z,87.00
2017-12-01T06:45:33.906Z,85.80
2017-12-01T06:48:00.903Z,84.40
2017-12-01T06:50:27.154Z,84.30
2017-12-01T06:52:53.403Z,85.10
2017-12-01T06:55:19.750Z,84.40
2017-12-01T06:57:45.984Z,82.00
2017-12-01T07:00:12.970Z,83.60
2017-12-01T07:02:39.242Z,83.60
2017-12-01T07:05:06.235Z,81.40
2017-12-01T07:07:32.467Z,81.30
2017-12-01T07:09:58.753Z,82.90
2017-12-01T07:12:25.734Z,83.20
2017-12-01T07:14:51.971Z,83.10
2017-12-01T07:17:18.987Z,86.70
2017-12-01T07:19:45.360Z,86.70
2017-12-01T07:22:12.414Z,86.80
2017-12-01T07:24:38.676Z,86.80
2017-12-01T07:27:07.709Z,85.20
2017-12-01T07:29:34.002Z,84.30
2017-12-01T07:32:00.252Z,86.60
2017-12-01T07:34:26.486Z,86.80
2017-12-01T07:36:52.729Z,85.80
2017-12-01T07:39:18.975Z,84.50
2017-12-01T07:41:45.255Z,82.20
2017-12-01T07:44:13.194Z,86.40
2017-12-01T07:46:39.450Z,86.30
2017-12-01T07:49:06.498Z,87.60
2017-12-01T07:51:32.809Z,87.50
2017-12-01T07:53:59.036Z,87.00
2017-12-01T07:56:26.071Z,88.50
2017-12-01T07:58:52.441Z,88.40
2017-12-01T08:01:18.703Z,88.90
2017-12-01T08:03:45.074Z,89.40
2017-12-01T08:06:11.382Z,89.50
2017-12-01T08:08:38.397Z,90.00
2017-12-01T08:11:04.792Z,90.00
2017-12-01T08:13:31.139Z,89.50
2017-12-01T08:16:09.747Z,90.20
2017-12-01T08:18:48.181Z,90.20
2017-12-01T08:21:14.429Z,90.20
2017-12-01T08:23:53.974Z,88.20
2017-12-01T08:26:21.037Z,88.30
2017-12-01T08:28:47.325Z,88.20
2017-12-01T08:31:13.572Z,89.10
2017-12-01T08:33:39.806Z,89.10
2017-12-01T08:36:06.781Z,90.00
2017-12-01T08:38:33.865Z,88.50
2017-12-01T08:41:00.078Z,88.40
2017-12-01T08:43:26.330Z,87.40
2017-12-01T08:45:52.570Z,87.00
2017-12-01T08:48:19.551Z,87.50
2017-12-01T08:50:45.793Z,87.60
2017-12-01T08:53:12.041Z,87.50
2017-12-01T08:55:38.312Z,85.90
2017-12-01T08:58:05.284Z,86.30
2017-12-01T09:00:32.233Z,86.80
2017-12-01T09:02:59.214Z,85.30
2017-12-01T09:05:25.459Z,85.20
2017-12-01T09:07:51.689Z,85.60
2017-12-01T09:10:18.007Z,86.20
2017-12-01T09:12:44.264Z,85.50
2017-12-01T09:15:11.288Z,86.10
2017-12-01T09:17:37.514Z,86.10
2017-12-01T09:20:03.793Z,85.60
2017-12-01T09:22:30.757Z,86.50
2017-12-01T09:24:57.734Z,85.40
2017-12-01T09:27:24.124Z,85.40
2017-12-01T09:29:50.405Z,85.60
2017-12-01T09:32:16.644Z,86.30
2017-12-01T09:34:43.639Z,86.30
2017-12-01T09:37:09.887Z,86.30
2017-12-01T09:39:36.166Z,85.90
2017-12-01T09:42:02.442Z,85.60
2017-12-01T09:44:28.753Z,86.10
2017-12-01T09:46:55.820Z,85.20
2017-12-01T09:49:22.062Z,85.10
2017-12-01T09:51:48.344Z,85.80
2017-12-01T09:54:14.637Z,85.60
2017-12-01T09:56:40.916Z,86.90
2017-12-01T09:59:07.157Z,87.50
2017-12-01T10:01:33.392Z,87.10
2017-12-01T10:03:59.657Z,86.00
2017-12-01T10:06:25.931Z,83.90
2017-12-01T10:08:52.194Z,84.50
2017-12-01T10:11:18.406Z,83.80
2017-12-01T10:13:44.632Z,85.20
2017-12-01T10:16:10.872Z,87.00
2017-12-01T10:18:37.130Z,87.80
2017-12-01T10:21:04.147Z,88.20
2017-12-01T10:23:31.146Z,89.80
2017-12-01T10:25:57.391Z,89.70
2017-12-01T10:28:23.646Z,89.50
2017-12-01T10:30:50.626Z,89.80
2017-12-01T10:33:16.869Z,89.80
2017-12-01T10:35:43.214Z,90.00
2017-12-01T10:38:09.491Z,89.40
2017-12-01T10:40:36.433Z,89.10
2017-12-01T10:43:03.421Z,90.00
2017-12-01T10:45:29.663Z,90.00
2017-12-01T10:47:55.899Z,90.30
2017-12-01T10:50:22.134Z,88.10
2017-12-01T10:52:49.122Z,88.00
2017-12-01T10:55:16.085Z,88.20
2017-12-01T10:57:42.339Z,88.70
2017-12-01T11:00:08.609Z,88.20
2017-12-01T11:02:34.864Z,87.60
2017-12-01T11:05:01.466Z,86.80
2017-12-01T11:07:27.725Z,87.00
2017-12-01T11:09:53.984Z,86.60
2017-12-01T11:12:20.232Z,88.30
2017-12-01T11:14:47.222Z,85.50
2017-12-01T11:17:13.481Z,85.40
2017-12-01T11:19:39.686Z,83.80
2017-12-01T11:22:05.905Z,84.20
2017-12-01T11:24:32.135Z,83.80
2017-12-01T11:26:58.365Z,83.10
2017-12-01T11:29:24.641Z,83.00
2017-12-01T11:31:50.976Z,84.30
2017-12-01T11:34:17.973Z,85.20
2017-12-01T11:36:44.239Z,84.70
2017-12-01T11:39:10.523Z,84.20
2017-12-01T11:41:36.802Z,85.50
2017-12-01T11:44:03.318Z,85.40
2017-12-01T11:46:29.686Z,84.30
2017-12-01T11:48:57.537Z,85.30
2017-12-01T11:51:23.823Z,84.70
2017-12-01T11:53:50.124Z,83.20
2017-12-01T11:56:17.077Z,82.30
2017-12-01T11:58:43.354Z,82.30
2017-12-01T12:01:10.384Z,81.50
2017-12-01T12:03:36.622Z,81.40
2017-12-01T12:06:03.609Z,83.90
2017-12-01T12:08:29.842Z,83.70
2017-12-01T12:10:56.073Z,84.90
2017-12-01T12:13:22.301Z,85.70
2017-12-01T12:15:48.578Z,84.20
2017-12-01T12:18:14.846Z,84.40
2017-12-01T12:20:41.813Z,81.40
2017-12-01T12:23:08.037Z,81.30
2017-12-01T12:25:34.278Z,81.90
2017-12-01T12:28:00.588Z,82.20
2017-12-01T12:30:26.817Z,81.90
2017-12-01T12:32:53.062Z,82.40
2017-12-01T12:35:19.301Z,81.10
2017-12-01T12:37:45.533Z,82.80
2017-12-01T12:40:12.528Z,81.40
2017-12-01T12:42:38.750Z,81.80
2017-12-01T12:45:04.993Z,82.20
2017-12-01T12:47:31.206Z,81.40
2017-12-01T12:49:57.457Z,79.50
2017-12-01T12:52:23.704Z,80.70
2017-12-01T12:54:49.959Z,80.50
2017-12-01T12:57:16.932Z,77.80
2017-12-01T12:59:43.261Z,77.70
2017-12-01T13:02:09.498Z,78.80
2017-12-01T13:04:35.770Z,77.20
2017-12-01T13:07:02.113Z,80.40
2017-12-01T13:09:29.101Z,75.90
2017-12-01T13:11:55.344Z,75.80
2017-12-01T13:14:21.612Z,75.80
2017-12-01T13:16:47.839Z,77.60
2017-12-01T13:19:14.150Z,76.70
2017-12-01T13:21:40.381Z,74.80
2017-12-01T13:24:06.658Z,76.70
2017-12-01T13:26:32.916Z,75.60
2017-12-01T13:28:59.313Z,75.50
2017-12-01T13:31:25.908Z,75.50
2017-12-01T13:33:53.393Z,76.10
2017-12-01T13:36:20.958Z,73.70
2017-12-01T13:38:47.661Z,73.70
2017-12-01T13:41:14.401Z,74.60
2017-12-01T13:43:42.169Z,75.60
2017-12-01T13:46:09.231Z,75.60
2017-12-01T13:48:35.989Z,74.20
2017-12-01T13:51:03.570Z,71.80
2017-12-01T13:53:31.344Z,72.30
2017-12-01T13:55:58.182Z,72.20
2017-12-01T13:58:26.405Z,73.40
2017-12-01T14:00:53.385Z,72.00
2017-12-01T14:03:19.731Z,73.10
2017-12-01T14:05:45.996Z,73.50
2017-12-01T14:08:12.258Z,71.10
2017-12-01T14:10:38.523Z,73.90
2017-12-01T14:13:04.754Z,72.30
2017-12-01T14:15:37.547Z,72.50
2017-12-01T14:18:04.381Z,74.40
2017-12-01T14:20:33.504Z,73.20
2017-12-01T14:22:59.809Z,71.20
2017-12-01T14:25:26.061Z,71.50
2017-12-01T14:27:53.049Z,69.20
2017-12-01T14:30:19.306Z,68.50
2017-12-01T14:32:45.572Z,71.40
2017-12-01T14:35:12.537Z,71.90
2017-12-01T14:37:38.781Z,71.80
2017-12-01T14:40:05.034Z,73.50
2017-12-01T14:42:31.277Z,70.60
2017-12-01T14:44:57.635Z,72.50
2017-12-01T14:47:24.009Z,73.90
2017-12-01T14:49:50.261Z,71.60
2017-12-01T14:52:16.586Z,70.20
2017-12-01T14:54:43.602Z,69.30
2017-12-01T14:57:10.604Z,70.30
2017-12-01T14:59:36.885Z,70.30
2017-12-01T15:02:03.154Z,70.40
2017-12-01T15:04:29.498Z,70.60
2017-12-01T15:06:55.773Z,70.60
2017-12-01T15:09:22.157Z,68.60
2017-12-01T15:11:48.467Z,66.50
2017-12-01T15:14:14.728Z,69.20
2017-12-01T15:16:40.987Z,67.60
2017-12-01T15:19:07.233Z,68.90
2017-12-01T15:21:33.522Z,67.20
2017-12-01T15:23:59.800Z,65.80
2017-12-01T15:26:26.793Z,65.80
2017-12-01T15:28:53.042Z,65.80
2017-12-01T15:31:19.283Z,67.20
2017-12-01T15:33:45.541Z,69.70
2017-12-01T15:36:12.566Z,68.70
2017-12-01T15:38:39.624Z,67.70
2017-12-01T15:41:05.879Z,67.60
2017-12-01T15:43:32.142Z,68.20
2017-12-01T15:45:58.486Z,69.30
2017-12-01T15:48:24.811Z,68.50
2017-12-01T15:50:51.145Z,67.50
2017-12-01T15:53:17.437Z,69.40
2017-12-01T15:55:43.689Z,70.00
2017-12-01T15:58:09.974Z,67.60
2017-12-01T16:00:36.249Z,70.00
2017-12-01T16:03:02.538Z,69.90
2017-12-01T16:05:28.607Z,71.50
2017-12-01T16:07:54.741Z,70.40
2017-12-01T16:10:21.603Z,68.50
2017-12-01T16:12:47.750Z,68.40
2017-12-01T16:15:13.809Z,69.30
2017-12-01T16:17:39.889Z,71.60
2017-12-01T16:20:05.951Z,70.70
2017-12-01T16:22:31.986Z,70.80
2017-12-01T16:24:58.026Z,70.30
2017-12-01T16:27:24.841Z,73.00
2017-12-01T16:29:50.890Z,72.90
2017-12-01T16:32:17.019Z,72.70
2017-12-01T16:34:43.819Z,72.40
2017-12-01T16:37:09.922Z,72.40
2017-12-01T16:39:35.979Z,73.60
2017-12-01T16:42:02.102Z,73.20
2017-12-01T16:44:28.203Z,73.10
2017-12-01T16:46:54.371Z,73.80
2017-12-01T16:49:21.260Z,74.00
2017-12-01T16:51:47.341Z,73.90
2017-12-01T16:54:14.152Z,74.40
2017-12-01T16:56:40.210Z,74.20
2017-12-01T16:59:07.033Z,75.00
2017-12-01T17:01:33.158Z,74.90
2017-12-01T17:03:59.960Z,74.30
2017-12-01T17:06:26.097Z,74.10
2017-12-01T17:08:52.169Z,72.50
2017-12-01T17:11:18.241Z,72.50
2017-12-01T17:13:44.449Z,73.40
2017-12-01T17:16:10.623Z,74.40
2017-12-01T17:18:37.486Z,75.00
2017-12-01T17:21:03.661Z,75.00
2017-12-01T17:23:29.821Z,76.60
2017-12-01T17:25:56.623Z,76.20
2017-12-01T17:28:22.700Z,76.20
2017-12-01T17:30:48.825Z,76.20
2017-12-01T17:33:15.596Z,79.20
2017-12-01T17:35:42.404Z,79.20
2017-12-01T17:38:08.466Z,78.60
2017-12-01T17:40:35.258Z,78.90
2017-12-01T17:43:02.102Z,78.90
2017-12-01T17:45:28.905Z,79.20
2017-12-01T17:47:55.002Z,79.70
2017-12-01T17:50:21.062Z,78.80
2017-12-01T17:52:47.129Z,79.20
2017-12-01T17:55:13.192Z,80.10
2017-12-01T17:57:39.252Z,79.30
2017-12-01T18:00:06.046Z,79.20
2017-12-01T18:02:32.127Z,79.20
2017-12-01T18:04:58.977Z,79.20
2017-12-01T18:07:25.066Z,78.10
2017-12-01T18:09:51.871Z,78.70
2017-12-01T18:12:17.997Z,78.60
2017-12-01T18:14:44.052Z,79.30
2017-12-01T18:17:10.098Z,78.80
2017-12-01T18:19:36.214Z,79.10
2017-12-01T18:22:02.219Z,78.30
2017-12-01T18:24:28.345Z,75.30
2017-12-01T18:26:54.434Z,76.30
2017-12-01T18:29:20.538Z,75.30
2017-12-01T18:31:46.575Z,76.80
2017-12-01T18:34:12.702Z,77.70
2017-12-01T18:36:38.733Z,79.50
2017-12-01T18:39:04.782Z,77.20
2017-12-01T18:41:30.837Z,77.60
2017-12-01T18:43:56.897Z,76.80
2017-12-01T18:46:22.953Z,74.80
2017-12-01T18:48:50.049Z,74.50
2017-12-01T18:51:16.169Z,73.40
2017-12-01T18:53:42.969Z,73.80
2017-12-01T18:56:09.021Z,73.70
2017-12-01T18:58:35.083Z,72.70
2017-12-01T19:01:01.142Z,71.60
2017-12-01T19:03:27.954Z,71.80
2017-12-01T19:05:53.998Z,71.80
2017-12-01T19:08:20.033Z,71.50
2017-12-01T19:10:46.859Z,71.60
2017-12-01T19:13:12.901Z,71.30
2017-12-01T19:15:39.714Z,71.50
2017-12-01T19:18:05.835Z,71.30
2017-12-01T19:20:31.949Z,72.00
2017-12-01T19:22:57.966Z,72.80
2017-12-01T19:25:24.753Z,72.90
2017-12-01T19:27:51.573Z,73.60
2017-12-01T19:30:18.386Z,73.90
2017-12-01T19:32:44.475Z,73.60
2017-12-01T19:35:10.558Z,73.00
2017-12-01T19:37:36.712Z,73.10
2017-12-01T19:40:02.815Z,72.00
2017-12-01T19:42:28.919Z,71.90
2017-12-01T19:44:54.984Z,72.10
2017-12-01T19:47:21.798Z,70.80
2017-12-01T19:49:47.862Z,70.70
2017-12-01T19:52:15.039Z,70.30
2017-12-01T19:54:41.870Z,71.90
2017-12-01T19:57:07.960Z,71.90
2017-12-01T19:59:34.746Z,71.20
2017-12-01T20:02:00.769Z,71.20
2017-12-01T20:04:26.807Z,71.00
2017-12-01T20:06:52.854Z,70.70
2017-12-01T20:09:19.651Z,70.10
2017-12-01T20:11:45.759Z,70.10
2017-12-01T20:14:12.710Z,70.70
2017-12-01T20:16:38.757Z,71.20
2017-12-01T20:19:04.917Z,71.50
2017-12-01T20:21:31.026Z,71.60
2017-12-01T20:23:57.209Z,71.60
2017-12-01T20:26:24.037Z,73.80
2017-12-01T20:28:50.087Z,73.50
2017-12-01T20:31:16.900Z,73.60
2017-12-01T20:33:42.987Z,73.70
2017-12-01T20:36:09.098Z,73.50
2017-12-01T20:38:35.907Z,73.30
2017-12-01T20:41:02.795Z,72.60
2017-12-01T20:43:29.631Z,72.80
2017-12-01T20:45:55.697Z,72.70
2017-12-01T20:48:21.845Z,72.70
2017-12-01T20:50:47.918Z,72.70
2017-12-01T20:53:14.120Z,72.60
2017-12-01T20:55:40.186Z,72.60
2017-12-01T20:58:06.231Z,73.40
2017-12-01T21:00:32.302Z,74.00
2017-12-01T21:02:58.349Z,76.10
2017-12-01T21:05:25.432Z,75.30
2017-12-01T21:07:52.181Z,75.20
2017-12-01T21:10:18.229Z,74.40
2017-12-01T21:12:44.278Z,74.30
2017-12-01T21:15:10.554Z,75.90
2017-12-01T21:17:36.881Z,75.40
2017-12-01T21:20:03.139Z,74.90
2017-12-01T21:22:30.311Z,74.00
2017-12-01T21:24:57.344Z,74.10
2017-12-01T21:27:24.362Z,74.10
2017-12-01T21:29:50.721Z,74.00
2017-12-01T21:32:17.577Z,74.30
2017-12-01T21:34:43.626Z,74.10
2017-12-01T21:37:09.909Z,73.70
2017-12-01T21:39:37.115Z,73.90
2017-12-01T21:42:03.381Z,73.80
2017-12-01T21:44:30.408Z,75.10
2017-12-01T21:46:57.465Z,73.80
2017-12-01T21:52:24.310Z,73.40
2017-12-01T21:54:50.440Z,72.80
2017-12-01T21:57:16.467Z,71.80
2017-12-01T21:59:42.556Z,70.30
2017-12-01T22:02:08.613Z,74.20
2017-12-01T22:04:34.684Z,73.30
2017-12-01T22:07:00.895Z,72.40
2017-12-01T22:09:26.993Z,71.80
2017-12-01T22:11:53.378Z,71.70
2017-12-01T22:14:19.475Z,72.00
2017-12-01T22:16:46.273Z,72.00
2017-12-01T22:19:12.458Z,71.90
2017-12-01T22:21:39.419Z,72.50
2017-12-01T22:24:05.564Z,72.50
2017-12-01T22:26:31.690Z,72.40
2017-12-01T22:28:58.502Z,72.40
2017-12-01T22:31:24.573Z,72.30
2017-12-01T22:33:50.670Z,72.10
2017-12-01T22:36:17.482Z,71.60
2017-12-01T22:38:44.344Z,72.40
2017-12-01T22:41:11.164Z,71.00
2017-12-01T22:43:37.325Z,71.00
2017-12-01T22:46:03.505Z,70.40
2017-12-01T22:48:29.574Z,71.70
2017-12-01T22:50:55.737Z,72.10
2017-12-01T22:53:22.602Z,71.50
2017-12-01T22:55:49.402Z,71.90
2017-12-01T22:58:15.477Z,71.90
2017-12-01T23:00:41.549Z,72.00
2017-12-01T23:03:08.351Z,71.90
2017-12-01T23:05:34.554Z,71.90
2017-12-01T23:08:07.510Z,72.10
2017-12-01T23:10:34.476Z,71.90
2017-12-01T23:13:00.611Z,71.80
2017-12-01T23:15:26.646Z,72.20
2017-12-01T23:17:53.437Z,72.30
2017-12-01T23:20:19.509Z,72.30
2017-12-01T23:22:45.638Z,72.40
2017-12-01T23:25:12.066Z,72.20
2017-12-01T23:27:38.106Z,71.90
2017-12-01T23:30:04.247Z,71.80
2017-12-01T23:32:30.343Z,72.60
2017-12-01T23:34:56.436Z,72.60
2017-12-01T23:37:22.542Z,72.30
2017-12-01T23:39:48.686Z,72.20
2017-12-01T23:42:14.778Z,72.00
2017-12-01T23:44:42.882Z,72.10
2017-12-01T23:47:13.909Z,71.80
2017-12-01T23:49:41.074Z,71.70
2017-12-01T23:52:08.123Z,71.50
2017-12-01T23:54:37.528Z,71.60
2017-12-01T23:57:08.807Z,72.10
2017-12-01T23:59:35.081Z,72.60
